Latest Weather Observations for Cape Willoughby

IDS60801

Issued at 4:02 pm CST Sunday 24 May 2015 (issued every 30 minutes, with the page automatically refreshed every 10 minutes)

About weather observations | Map of weather stations | Latest weather observations for SA | Other Formats
Station Details ID: 022803 Name: CAPE WILLOUGHBY Lat: -35.84 Lon: 138.13 Height: 55.0 m
Data from the previous 72 hours. | See also: Recent months at Cape Willoughby
Date/Time
CST
Temp
°C
App
Temp
°C
Dew
Point
Rel
Hum
%
Delta-T
°C
Wind Press
QNH
hPa
Press
MSL
hPa
Rain
since 9 am
mm
Dir
 
Spd
km/h
Gust
km/h
Spd
kts
Gust
kts
24/04:00pm 14.2 9.3 9.8 75 2.3 NNW 26 30 14 16 1027.2 1027.2 0.0
24/03:30pm 14.3 9.0 9.9 75 2.3 NNW 28 32 15 17 1027.1 1027.1 0.0
24/03:00pm 14.2 8.9 9.8 75 2.3 NW 28 32 15 17 1027.0 1027.0 0.0
24/02:30pm 14.4 9.1 10.0 75 2.3 NW 28 37 15 20 1026.9 1026.9 0.0
24/02:00pm 14.7 9.5 10.1 74 2.4 NNW 28 33 15 18 1027.0 1027.0 0.0
24/01:30pm 14.5 8.4 9.9 74 2.4 NNW 32 41 17 22 1027.2 1027.2 0.0
24/01:00pm 14.1 7.9 9.5 74 2.4 NNW 32 39 17 21 1027.5 1027.5 0.0
24/12:30pm 14.0 7.9 9.6 75 2.2 NW 32 41 17 22 1027.7 1027.7 0.0
24/12:00pm 14.3 8.6 9.7 74 2.4 NNW 30 39 16 21 1027.9 1027.9 0.0
24/11:30am 14.2 8.1 9.6 74 2.4 NW 32 39 17 21 1028.1 1028.1 0.0
24/11:00am 14.4 8.3 9.8 74 2.4 NNW 32 37 17 20 1028.2 1028.2 0.0
24/10:30am 13.7 8.0 9.7 77 2.0 NNW 30 35 16 19 1028.2 1028.2 0.0
24/10:00am 13.5 8.1 9.6 77 2.0 NNW 28 33 15 18 1028.3 1028.3 0.0
24/09:30am 14.1 8.8 9.7 75 2.3 NNW 28 35 15 19 1028.3 1028.3 0.0
24/09:00am 13.8 8.4 9.6 76 2.1 NNW 28 32 15 17 1028.5 1028.5 0.0
24/08:30am 13.4 8.4 9.5 77 2.0 NNW 26 35 14 19 1028.4 1028.4 0.0
24/08:00am 12.5 8.7 9.0 79 1.8 NW 19 26 10 14 1028.1 1028.1 0.0
24/07:30am 12.4 11.0 8.9 79 1.7 NNW 6 9 3 5 1028.1 1028.1 0.0
24/07:00am 12.6 11.0 8.7 77 2.0 NNW 7 9 4 5 1027.8 1027.8 0.0
24/06:30am 13.0 10.7 8.9 76 2.1 N 11 13 6 7 1027.8 1027.8 0.0
24/06:00am 12.9 10.6 9.0 77 2.0 N 11 13 6 7 1027.5 1027.5 0.0
24/05:30am 12.6 10.1 9.6 82 1.5 NNW 13 17 7 9 1027.4 1027.4 0.0
24/05:00am 12.7 10.5 9.5 81 1.6 NE 11 15 6 8 1027.3 1027.3 0.0
24/04:30am 12.7 9.8 9.7 82 1.5 NNE 15 19 8 10 1027.3 1027.3 0.0
24/04:00am 12.9 10.1 10.1 83 1.4 NNE 15 19 8 10 1027.2 1027.2 0.0
24/03:30am 12.6 10.2 10.0 84 1.3 NNE 13 17 7 9 1027.4 1027.4 0.0
24/03:00am 12.6 9.8 10.0 84 1.3 NNE 15 17 8 9 1027.4 1027.4 0.0
24/02:30am 12.8 9.9 9.8 82 1.5 NNE 15 17 8 9 1027.6 1027.6 0.0
24/02:00am 12.7 9.5 9.9 83 1.4 NE 17 20 9 11 1027.7 1027.7 0.0
24/01:30am 12.5 8.3 9.7 83 1.4 NE 22 26 12 14 1027.7 1027.7 0.0
24/01:00am 12.4 8.1 9.2 81 1.6 NE 22 28 12 15 1027.8 1027.8 0.0
24/12:30am 12.5 7.3 9.0 79 1.7 NE 26 32 14 17 1028.1 1028.1 0.0
24/12:00am 12.6 7.4 8.9 78 1.8 NE 26 32 14 17 1028.4 1028.4 0.0
 
Date/Time
CST
Temp
°C
App
Temp
°C
Dew
Point
Rel
Hum
%
Delta-T
°C
Wind Press
QNH
hPa
Press
MSL
hPa
Rain
since 9 am
mm
Dir
 
Spd
km/h
Gust
km/h
Spd
kts
Gust
kts
23/11:30pm 12.8 8.1 9.4 80 1.7 NE 24 28 13 15 1028.6 1028.6 0.0
23/11:00pm 12.8 7.8 9.6 81 1.6 ENE 26 32 14 17 1028.6 1028.6 0.0
23/10:30pm 12.7 7.2 9.3 80 1.7 NE 28 33 15 18 1028.8 1028.8 0.0
23/10:00pm 12.7 7.2 9.2 79 1.8 NE 28 33 15 18 1028.9 1028.9 0.0
23/09:30pm 12.8 8.2 9.6 81 1.6 NE 24 30 13 16 1029.1 1029.1 0.0
23/09:00pm 12.8 8.2 9.8 82 1.5 NE 24 30 13 16 1029.3 1029.3 0.0
23/08:30pm 12.7 7.7 9.5 81 1.6 NE 26 30 14 16 1029.5 1029.5 0.0
23/08:00pm 12.8 8.2 9.8 82 1.5 ENE 24 32 13 17 1029.2 1029.2 0.0
23/07:30pm 13.0 9.5 10.2 83 1.4 ENE 19 22 10 12 1029.2 1029.2 0.0
23/07:00pm 12.7 9.5 9.9 83 1.4 ENE 17 22 9 12 1029.4 1029.4 0.0
23/06:30pm 12.5 8.9 9.7 83 1.4 ENE 19 22 10 12 1029.1 1029.1 0.0
23/06:00pm 12.2 9.3 9.6 84 1.3 ENE 15 19 8 10 1029.3 1029.3 0.0
23/05:30pm 11.9 9.6 8.9 82 1.5 E 11 13 6 7 1029.3 1029.3 0.0
23/05:00pm 11.9 10.0 8.9 82 1.5 E 9 13 5 7 1029.4 1029.4 0.0
23/04:30pm 12.0 9.6 8.8 81 1.6 ENE 11 13 6 7 1029.5 1029.5 0.0
23/04:00pm 12.1 9.7 8.6 79 1.7 ENE 11 15 6 8 1029.5 1029.5 0.0
23/03:30pm 12.2 9.5 8.9 80 1.6 ENE 13 19 7 10 1029.5 1029.5 0.0
23/03:00pm 12.2 9.1 8.7 79 1.7 ENE 15 17 8 9 1029.7 1029.7 0.0
23/02:30pm 12.7 9.7 9.3 80 1.7 ENE 15 19 8 10 1029.8 1029.8 0.0
23/02:00pm 12.3 9.5 8.4 77 1.9 ENE 13 20 7 11 1029.9 1029.9 0.0
23/01:30pm 12.3 9.1 8.4 77 1.9 ENE 15 20 8 11 1030.1 1030.1 0.0
23/01:00pm 12.4 9.0 9.1 80 1.7 ENE 17 22 9 12 1030.3 1030.3 0.0
23/12:30pm 12.0 7.6 8.8 81 1.6 ENE 22 26 12 14 1030.7 1030.7 0.0
23/12:00pm 11.4 6.5 8.3 81 1.5 ENE 24 28 13 15 1031.2 1031.2 0.0
23/11:30am 11.7 6.3 8.2 79 1.7 ENE 26 30 14 16 1031.7 1031.7 0.0
23/11:00am 11.4 6.4 7.9 79 1.7 ENE 24 28 13 15 1032.2 1032.2 0.0
23/10:30am 11.4 6.5 8.3 81 1.5 ENE 24 30 13 16 1032.6 1032.6 0.0
23/10:00am 11.1 5.9 7.4 78 1.8 ENE 24 30 13 16 1032.6 1032.6 0.0
23/09:30am 10.9 5.4 7.4 79 1.7 NE 26 32 14 17 1032.6 1032.6 0.0
23/09:00am 10.9 5.4 7.4 79 1.7 NE 26 32 14 17 1032.7 1032.7 0.0
23/08:30am 10.9 5.5 8.1 83 1.4 NE 26 32 14 17 1032.6 1032.6 0.0
23/08:00am 11.0 5.6 7.9 81 1.5 NE 26 32 14 17 1032.3 1032.3 0.0
23/07:30am 10.5 5.3 7.2 80 1.6 NE 24 30 13 16 1032.1 1032.1 0.0
23/07:00am 10.6 5.7 6.9 78 1.8 NE 22 28 12 15 1031.9 1031.9 0.0
23/06:30am 10.7 5.9 7.2 79 1.7 NE 22 28 12 15 1031.9 1031.9 0.0
23/06:00am 10.9 6.6 7.2 78 1.8 NE 19 24 10 13 1031.8 1031.8 0.0
23/05:30am 11.0 6.5 6.9 76 1.9 NE 20 26 11 14 1031.5 1031.5 0.0
23/05:00am 11.3 7.8 7.0 75 2.1 ENE 15 22 8 12 1031.3 1031.3 0.0
23/04:30am 11.3 6.8 6.8 74 2.1 E 20 26 11 14 1031.1 1031.1 0.0
23/04:00am 11.2 7.6 6.7 74 2.1 ENE 15 20 8 11 1031.3 1031.3 0.0
23/03:30am 11.1 6.6 6.3 72 2.2 E 19 26 10 14 1031.5 1031.5 0.0
23/03:00am 11.4 7.4 6.7 73 2.2 E 17 24 9 13 1031.8 1031.8 0.0
23/02:30am 11.9 8.2 7.8 76 2.0 E 17 22 9 12 1031.9 1031.9 0.0
23/02:00am 11.4 7.0 6.5 72 2.3 E 19 24 10 13 1031.8 1031.8 0.0
23/01:30am 11.8 7.3 6.9 72 2.3 E 20 28 11 15 1031.8 1031.8 0.0
23/01:00am 12.0 7.6 7.3 73 2.3 ESE 20 30 11 16 1031.9 1031.9 0.0
23/12:30am 12.1 7.7 7.4 73 2.3 E 20 28 11 15 1032.0 1032.0 0.0
23/12:00am 12.0 7.4 6.5 69 2.6 E 20 32 11 17 1032.3 1032.3 0.0
 
Date/Time
CST
Temp
°C
App
Temp
°C
Dew
Point
Rel
Hum
%
Delta-T
°C
Wind Press
QNH
hPa
Press
MSL
hPa
Rain
since 9 am
mm
Dir
 
Spd
km/h
Gust
km/h
Spd
kts
Gust
kts
22/11:30pm 12.1 6.8 6.8 70 2.5 ESE 24 32 13 17 1032.2 1032.2 0.0
22/11:00pm 12.3 7.0 7.0 70 2.6 ESE 24 33 13 18 1032.1 1032.1 0.0
22/10:30pm 12.1 7.1 6.4 68 2.7 ESE 22 32 12 17 1032.3 1032.3 0.0
22/10:00pm 12.5 7.6 6.8 68 2.7 ESE 22 32 12 17 1032.3 1032.3 0.0
22/09:30pm 12.8 6.5 7.5 70 2.6 ESE 30 35 16 19 1032.1 1032.1 0.0
22/09:00pm 13.1 8.1 8.2 72 2.4 SE 24 33 13 18 1032.1 1032.1 0.0
22/08:30pm 13.0 6.9 6.8 66 3.0 SE 28 33 15 18 1032.1 1032.1 0.0
22/08:00pm 12.9 8.0 7.1 68 2.8 ESE 22 28 12 15 1032.2 1032.2 0.0
22/07:30pm 12.9 6.9 7.1 68 2.8 SE 28 39 15 21 1031.9 1031.9 0.0
22/07:00pm 13.2 7.0 7.9 70 2.6 SE 30 37 16 20 1031.7 1031.7 0.0
22/06:30pm 13.3 6.6 7.5 68 2.8 ESE 32 41 17 22 1031.6 1031.6 0.0
22/06:00pm 13.3 8.3 8.2 71 2.5 SE 24 33 13 18 1031.4 1031.4 0.0
22/05:30pm 13.3 7.6 8.4 72 2.4 SE 28 35 15 19 1031.3 1031.3 0.0
22/05:00pm 13.4 8.4 8.0 70 2.7 SE 24 30 13 16 1031.7 1031.7 0.0
22/04:30pm 13.1 9.1 8.2 72 2.4 ESE 19 22 10 12 1031.9 1031.9 0.0
22/04:00pm 13.2 9.0 8.1 71 2.5 SE 20 24 11 13 1031.8 1031.8 0.0
22/03:30pm 13.4 9.1 8.0 70 2.7 SE 20 30 11 16 1031.6 1031.6 0.0
22/03:00pm 13.5 10.2 8.1 70 2.7 SE 15 17 8 9 1031.6 1031.6 0.0
22/02:30pm 13.6 10.4 8.4 71 2.6 SE 15 20 8 11 1031.7 1031.7 0.0
22/02:00pm 13.5 9.4 8.6 72 2.5 SE 20 24 11 13 1031.7 1031.7 0.0
22/01:30pm 13.5 10.2 8.1 70 2.7 ESE 15 20 8 11 1031.8 1031.8 0.0
22/01:00pm 13.7 10.1 8.5 71 2.6 SE 17 22 9 12 1031.9 1031.9 0.0
22/12:30pm 13.5 9.4 8.8 73 2.4 SE 20 26 11 14 1031.9 1031.9 0.0
22/12:00pm 13.6 8.3 8.4 71 2.6 SE 26 32 14 17 1032.1 1032.1 0.0
22/11:30am 13.9 10.7 7.0 63 3.3 SE 13 17 7 9 1032.6 1032.6 0.0
22/11:00am 13.5 10.0 7.3 66 3.0 SSE 15 22 8 12 1032.8 1032.8 0.0
22/10:30am 13.5 8.8 7.7 68 2.8 SSE 22 32 12 17 1032.7 1032.7 0.0
22/10:00am 13.2 8.4 8.7 74 2.3 SE 24 30 13 16 1032.7 1032.7 0.0
22/09:30am 12.8 10.1 10.5 86 1.2 ESE 15 19 8 10 1032.5 1032.5 0.0
22/09:00am 12.7 9.7 10.8 88 1.0 ESE 17 22 9 12 1032.3 1032.3 2.2
22/08:30am 11.9 8.3 10.5 91 0.7 ESE 20 28 11 15 1032.0 1032.0 2.2
22/08:00am 12.0 9.0 10.6 91 0.7 ESE 17 20 9 11 1031.8 1031.8 1.6
22/07:30am 11.5 5.6 10.4 93 0.6 SE 32 43 17 23 1031.4 1031.4 1.6
22/07:00am 11.5 5.3 10.2 92 0.7 SE 33 39 18 21 1031.0 1031.0 1.4
22/06:30am 11.8 8.2 10.7 93 0.6 ESE 20 30 11 16 1030.8 1030.8 1.4
22/06:00am 11.7 7.0 10.8 94 0.5 SE 26 35 14 19 1030.5 1030.5 1.4
22/05:30am 11.8 8.2 10.7 93 0.6 ESE 20 35 11 19 1030.3 1030.3 1.4
22/05:00am 11.7 9.1 10.6 93 0.6 ESE 15 26 8 14 1030.1 1030.1 1.2
22/04:30am 11.8 9.2 10.7 93 0.6 SE 15 24 8 13 1029.9 1029.9 1.2
22/04:00am 11.9 7.2 10.6 92 0.7 ESE 26 32 14 17 1029.8 1029.8 1.0
22/03:30am 12.1 8.5 10.7 91 0.7 SE 20 22 11 12 1029.8 1029.8 1.0
22/03:00am 12.4 8.6 11.1 92 0.7 SSE 22 30 12 16 1029.8 1029.8 0.8
22/02:30am 12.4 8.9 10.8 90 0.8 SE 20 26 11 14 1029.8 1029.8 0.4
22/02:00am 12.7 9.1 10.6 87 1.1 SSE 20 28 11 15 1029.7 1029.7 0.2
22/01:30am 12.7 8.7 10.4 86 1.2 SSE 22 28 12 15 1029.6 1029.6 0.2
22/01:00am 12.8 8.0 10.2 84 1.3 SSE 26 30 14 16 1029.6 1029.6 0.2
22/12:30am 12.3 7.8 10.0 86 1.2 S 24 35 13 19 1029.9 1029.9 0.2
22/12:00am 12.6 7.7 9.8 83 1.4 SE 26 35 14 19 1029.7 1029.7 0.2
 
Date/Time
CST
Temp
°C
App
Temp
°C
Dew
Point
Rel
Hum
%
Delta-T
°C
Wind Press
QNH
hPa
Press
MSL
hPa
Rain
since 9 am
mm
Dir
 
Spd
km/h
Gust
km/h
Spd
kts
Gust
kts
21/11:30pm 12.8 8.7 10.0 83 1.4 SSE 22 28 12 15 1029.8 1029.8 0.2
21/11:00pm 12.7 8.2 9.9 83 1.4 SSE 24 32 13 17 1029.7 1029.7 0.2
21/10:30pm 12.8 9.1 10.2 84 1.3 SSE 20 28 11 15 1029.8 1029.8 0.2
21/10:00pm 12.2 7.3 9.9 86 1.2 SSE 26 37 14 20 1029.8 1029.8 0.2
21/09:30pm 12.4 8.3 10.1 86 1.2 SSE 22 32 12 17 1029.7 1029.7 0.2
21/09:00pm 12.8 9.2 9.8 82 1.5 SSE 19 26 10 14 1029.7 1029.7 0.0
21/08:30pm 12.7 8.1 9.7 82 1.5 S 24 32 13 17 1029.7 1029.7 0.0
21/08:00pm 12.5 8.2 9.5 82 1.5 SSE 22 28 12 15 1029.5 1029.5 0.0
21/07:30pm 12.4 8.5 9.6 83 1.4 S 20 33 11 18 1029.4 1029.4 0.0
21/07:00pm 12.7 8.7 9.0 78 1.9 S 20 30 11 16 1029.1 1029.1 0.0
21/06:30pm 12.6 8.3 9.2 80 1.7 SSE 22 30 12 16 1028.9 1028.9 0.0
21/06:00pm 12.0 8.3 9.6 85 1.2 S 19 26 10 14 1028.7 1028.7 0.0
21/05:30pm 12.9 8.6 9.2 78 1.9 S 22 32 12 17 1028.3 1028.3 0.0
21/05:00pm 12.9 8.4 8.6 75 2.2 S 22 32 12 17 1028.0 1028.0 0.0
21/04:30pm 13.1 8.4 9.2 77 2.0 S 24 30 13 16 1027.9 1027.9 0.0

Other Formats:

Comma delimited format used in spreadsheet applications
http://www.bom.gov.au/fwo/IDS60801/IDS60801.94822.axf

JavaScript Object Notation format (JSON) in row-major order
http://www.bom.gov.au/fwo/IDS60801/IDS60801.94822.json